Time;durP1;ratioP1;P1;durP2;ratioP2;P2;SDS_P1;SDS_P2;PMS_P1;PMS_P2;Temp;Humidity;BMP_temperature;BMP_pressure;BME280_temperature;BME280_humidity;BME280_pressure;Samples;Min_cycle;Max_cycle;Signal;HPM_P1;HPM_P2
2021/04/11 00:00:32;;;;;;;7.68;3.42;;;5.50;94.50;;;;;;5052195;28;20385;-78
2021/04/11 00:02:59;;;;;;;8.90;5.45;;;5.40;94.40;;;;;;5051777;28;20074;-79
2021/04/11 00:05:30;;;;;;;6.88;4.55;;;5.40;93.90;;;;;;5052012;28;20025;-79
2021/04/11 00:07:56;;;;;;;5.13;3.08;;;5.30;93.90;;;;;;5052700;28;20044;-78
2021/04/11 00:10:29;;;;;;;6.82;3.65;;;5.40;94.30;;;;;;5051581;28;20459;-78
2021/04/11 00:12:55;;;;;;;7.03;3.80;;;5.30;94.10;;;;;;5053105;28;20029;-78
2021/04/11 00:15:21;;;;;;;6.53;3.85;;;5.30;94.10;;;;;;5052553;28;20104;-78
2021/04/11 00:17:46;;;;;;;5.70;3.03;;;5.30;94.30;;;;;;5051775;28;20122;-78
2021/04/11 00:20:13;;;;;;;7.70;4.57;;;5.30;94.20;;;;;;5052823;28;20159;-79
2021/04/11 00:22:40;;;;;;;6.28;3.72;;;5.20;94.00;;;;;;5051288;28;20021;-78
2021/04/11 00:25:11;;;;;;;8.68;6.03;;;5.20;94.70;;;;;;5052762;28;20032;-78
2021/04/11 00:27:37;;;;;;;6.03;3.55;;;5.10;94.20;;;;;;5050920;28;20005;-78
2021/04/11 00:30:06;;;;;;;8.35;5.25;;;5.20;94.40;;;;;;5053981;28;20349;-76
2021/04/11 00:32:32;;;;;;;6.18;3.38;;;5.10;93.90;;;;;;5051921;28;20037;-78
2021/04/11 00:34:57;;;;;;;7.93;4.70;;;5.10;93.90;;;;;;5050987;28;20106;-79
2021/04/11 00:37:24;;;;;;;5.47;4.00;;;5.10;93.50;;;;;;5052261;28;20028;-79
2021/04/11 00:39:50;;;;;;;7.13;4.72;;;5.10;94.10;;;;;;5052444;28;20032;-78
2021/04/11 00:42:47;;;;;;;8.82;5.20;;;5.10;94.00;;;;;;5050916;28;20408;-79
2021/04/11 00:45:39;;;;;;;7.85;5.50;;;5.10;93.60;;;;;;5051215;28;20063;-78
2021/04/11 00:48:08;;;;;;;7.32;4.97;;;5.00;93.10;;;;;;5052619;28;20019;-79
2021/04/11 00:50:34;;;;;;;9.10;5.72;;;5.00;93.20;;;;;;5051056;28;20025;-78
2021/04/11 00:53:00;;;;;;;5.88;4.13;;;4.90;93.20;;;;;;5051084;28;20028;-78
2021/04/11 00:55:27;;;;;;;8.73;6.13;;;4.90;93.50;;;;;;5051283;28;20523;-77
2021/04/11 00:57:53;;;;;;;3.60;1.95;;;4.90;93.20;;;;;;5051991;28;20079;-78
2021/04/11 01:00:28;;;;;;;7.45;5.18;;;5.00;94.20;;;;;;5050899;28;20024;-79
2021/04/11 01:02:54;;;;;;;6.45;4.22;;;5.00;94.10;;;;;;5050495;28;20025;-79
2021/04/11 01:05:29;;;;;;;9.30;6.28;;;5.00;93.90;;;;;;5050980;28;20082;-77
2021/04/11 01:07:56;;;;;;;10.00;6.68;;;4.90;93.60;;;;;;5050551;28;20048;-78
2021/04/11 01:10:26;;;;;;;8.77;5.88;;;4.90;93.90;;;;;;5052131;28;20531;-78
2021/04/11 01:12:53;;;;;;;6.35;4.18;;;4.90;93.70;;;;;;5050391;28;20090;-77
2021/04/11 01:15:32;;;;;;;9.32;6.00;;;4.80;93.80;;;;;;5049942;28;20033;-77
2021/04/11 01:17:58;;;;;;;7.03;5.25;;;4.90;93.80;;;;;;5050303;28;20029;-78
2021/04/11 01:20:25;;;;;;;10.35;6.53;;;4.90;93.90;;;;;;5050433;28;20029;-77
2021/04/11 01:23:09;;;;;;;9.75;5.85;;;4.80;93.40;;;;;;5051389;28;20354;-77
2021/04/11 01:25:37;;;;;;;8.93;6.43;;;4.80;93.60;;;;;;5052186;28;20407;-77
2021/04/11 01:28:09;;;;;;;6.88;4.63;;;4.80;93.40;;;;;;5050146;28;20017;-77
2021/04/11 01:30:37;;;;;;;10.57;7.05;;;4.80;93.80;;;;;;5050694;28;20557;-78
2021/04/11 01:33:08;;;;;;;8.73;5.88;;;4.80;93.10;;;;;;5050360;28;20445;-78
2021/04/11 01:35:34;;;;;;;8.75;6.40;;;4.80;93.50;;;;;;5052201;28;20025;-78
2021/04/11 01:38:01;;;;;;;11.85;7.47;;;4.70;93.50;;;;;;5052463;28;20031;-77
2021/04/11 01:40:41;;;;;;;8.95;5.47;;;4.70;93.10;;;;;;5055690;28;20017;-77
2021/04/11 01:43:09;;;;;;;9.13;6.50;;;4.80;93.50;;;;;;5055558;28;20033;-78
2021/04/11 01:45:37;;;;;;;7.50;4.85;;;4.70;93.20;;;;;;5054376;28;20044;-77
2021/04/11 01:48:03;;;;;;;10.13;5.40;;;4.80;93.50;;;;;;5054893;28;20033;-77
2021/04/11 01:50:29;;;;;;;6.32;4.63;;;4.80;93.80;;;;;;5054904;28;20454;-77
2021/04/11 01:52:56;;;;;;;7.25;4.45;;;4.80;94.00;;;;;;5054463;28;20013;-77
2021/04/11 01:55:24;;;;;;;8.30;5.55;;;4.80;94.10;;;;;;5054585;28;20112;-77
2021/04/11 01:57:55;;;;;;;8.70;6.45;;;4.80;93.70;;;;;;5053830;28;20415;-79
2021/04/11 02:00:32;;;;;;;4.80;3.00;;;4.80;93.50;;;;;;5055511;28;20021;-79
2021/04/11 02:03:11;;;;;;;8.02;5.50;;;4.80;93.90;;;;;;5053941;28;20470;-79
2021/04/11 02:05:42;;;;;;;8.27;5.03;;;4.70;93.40;;;;;;5054388;28;20473;-79
2021/04/11 02:08:10;;;;;;;8.63;5.43;;;4.70;93.70;;;;;;5053901;28;20408;-79
2021/04/11 02:10:39;;;;;;;5.80;3.80;;;4.70;93.70;;;;;;5053598;28;20041;-79
2021/04/11 02:13:07;;;;;;;8.50;4.68;;;4.70;93.60;;;;;;5053955;28;20075;-79
2021/04/11 02:15:39;;;;;;;7.63;5.80;;;4.70;93.20;;;;;;5055190;28;20021;-79
2021/04/11 02:18:05;;;;;;;7.60;4.88;;;4.70;93.50;;;;;;5053912;28;20108;-80
2021/04/11 02:20:32;;;;;;;7.28;4.97;;;4.70;93.20;;;;;;5053912;28;20033;-80
2021/04/11 02:22:58;;;;;;;10.13;6.38;;;4.70;93.30;;;;;;5053961;28;20021;-80
2021/04/11 02:25:29;;;;;;;8.80;6.25;;;4.60;93.20;;;;;;5056318;28;20031;-79
2021/04/11 02:27:56;;;;;;;7.43;5.60;;;4.60;93.10;;;;;;5056326;28;20024;-79
2021/04/11 02:30:23;;;;;;;6.50;4.30;;;4.60;93.10;;;;;;5053878;28;20078;-80
2021/04/11 02:32:49;;;;;;;10.10;6.35;;;4.60;93.60;;;;;;5053574;28;20094;-80
2021/04/11 02:35:21;;;;;;;9.10;5.85;;;4.60;93.50;;;;;;5053730;28;20362;-80
2021/04/11 02:37:53;;;;;;;8.07;4.65;;;4.60;93.40;;;;;;5053306;28;20032;-80
2021/04/11 02:40:24;;;;;;;9.25;6.03;;;4.70;93.70;;;;;;5053771;28;20070;-79
2021/04/11 02:42:50;;;;;;;7.57;5.43;;;4.70;93.90;;;;;;5053087;28;20021;-80
2021/04/11 02:45:29;;;;;;;6.93;4.85;;;4.70;93.80;;;;;;5053501;28;20449;-80
2021/04/11 02:47:55;;;;;;;4.63;2.45;;;4.80;94.00;;;;;;5053192;28;20024;-79
2021/04/11 02:50:25;;;;;;;6.72;4.93;;;4.80;94.30;;;;;;5054000;28;20032;-80
2021/04/11 02:53:06;;;;;;;6.70;5.00;;;4.80;93.70;;;;;;5053339;28;20123;-79
2021/04/11 02:55:38;;;;;;;4.57;2.50;;;4.80;93.50;;;;;;5053357;28;20017;-80
2021/04/11 02:58:04;;;;;;;7.07;4.15;;;4.80;93.70;;;;;;5054177;28;20045;-80
2021/04/11 03:00:33;;;;;;;5.30;3.28;;;4.80;93.10;;;;;;5053078;28;20025;-80
2021/04/11 03:02:59;;;;;;;5.90;3.47;;;4.80;93.20;;;;;;5054258;28;20052;-80
2021/04/11 03:05:26;;;;;;;7.18;4.63;;;4.70;92.90;;;;;;5052995;28;20044;-80
2021/04/11 03:07:57;;;;;;;7.22;4.05;;;4.80;92.80;;;;;;5052949;28;20024;-78
2021/04/11 03:10:28;;;;;;;6.07;4.22;;;4.70;92.90;;;;;;5052893;28;20084;-79
2021/04/11 03:12:56;;;;;;;5.10;3.13;;;4.70;92.80;;;;;;5052991;28;20070;-79
2021/04/11 03:15:23;;;;;;;2.90;1.75;;;4.70;93.00;;;;;;5052985;28;20029;-78
2021/04/11 03:17:51;;;;;;;6.63;2.95;;;4.70;93.60;;;;;;5052250;28;20036;-79
2021/04/11 03:20:21;;;;;;;4.95;2.63;;;4.70;93.20;;;;;;5052522;28;20017;-80
2021/04/11 03:22:51;;;;;;;4.10;2.63;;;4.70;92.80;;;;;;5053912;28;20048;-79
2021/04/11 03:25:18;;;;;;;;;;;4.70;92.80;;;;;;5054107;28;20369;-80
2021/04/11 03:28:01;;;;;;;3.15;2.10;;;4.70;92.80;;;;;;5052643;28;19909;-80
2021/04/11 03:30:36;;;;;;;2.58;1.73;;;4.70;92.70;;;;;;5052627;28;20024;-80
2021/04/11 03:33:07;;;;;;;1.95;1.33;;;4.60;92.90;;;;;;5052056;28;20032;-80
2021/04/11 03:35:35;;;;;;;3.92;2.22;;;4.70;93.20;;;;;;5052816;28;20017;-80
2021/04/11 03:38:03;;;;;;;3.75;2.40;;;4.70;92.80;;;;;;5052102;28;20017;-80
2021/04/11 03:40:31;;;;;;;3.35;2.25;;;4.70;92.70;;;;;;5052301;28;20380;-79
2021/04/11 03:43:07;;;;;;;3.80;2.70;;;4.60;92.60;;;;;;5052043;28;20075;-80
2021/04/11 03:45:35;;;;;;;3.38;1.90;;;4.60;92.60;;;;;;5052007;28;20021;-80
2021/04/11 03:48:24;;;;;;;3.10;2.17;;;4.60;92.80;;;;;;5052031;28;20461;-79
2021/04/11 03:51:05;;;;;;;3.85;2.45;;;4.60;92.70;;;;;;5053100;28;20098;-79
2021/04/11 03:53:38;;;;;;;3.63;2.20;;;4.60;92.90;;;;;;5051651;28;20017;-80
2021/04/11 03:56:09;;;;;;;4.40;2.53;;;4.60;92.80;;;;;;5052301;28;20527;-80
2021/04/11 03:58:50;;;;;;;5.28;2.55;;;4.60;92.80;;;;;;5053277;28;20039;-80
2021/04/11 04:01:22;;;;;;;6.20;2.33;;;4.70;93.30;;;;;;5052404;28;20021;-78
2021/04/11 04:03:51;;;;;;;3.05;2.20;;;4.70;93.00;;;;;;5052094;28;20036;-79
2021/04/11 04:06:23;;;;;;;3.22;1.90;;;4.60;92.80;;;;;;5053697;28;20025;-79
2021/04/11 04:08:50;;;;;;;3.67;2.42;;;4.60;92.90;;;;;;5052037;28;20045;-79
2021/04/11 04:11:49;;;;;;;4.22;2.10;;;4.60;92.70;;;;;;5051567;28;20092;-79
2021/04/11 04:14:14;;;;;;;4.88;2.20;;;4.60;93.10;;;;;;5051691;28;20476;-78
2021/04/11 04:17:11;;;;;;;2.60;1.95;;;4.60;93.30;;;;;;5052972;28;20021;-79
2021/04/11 04:20:09;;;;;;;2.60;1.67;;;4.70;93.60;;;;;;5051702;28;20465;-77
2021/04/11 04:22:58;;;;;;;4.40;2.40;;;4.70;93.20;;;;;;5054614;28;20085;-78
2021/04/11 04:25:33;;;;;;;3.88;2.10;;;4.70;93.00;;;;;;5055106;28;20037;-78
2021/04/11 04:28:07;;;;;;;3.72;2.40;;;4.70;93.00;;;;;;5054750;28;20020;-78
2021/04/11 04:30:47;;;;;;;4.32;2.22;;;4.70;93.00;;;;;;5053803;28;20021;-78
2021/04/11 04:33:23;;;;;;;4.45;1.98;;;4.70;92.90;;;;;;5055880;28;20047;-79
2021/04/11 04:36:06;;;;;;;4.68;2.35;;;4.70;92.90;;;;;;5054221;28;20025;-79
2021/04/11 04:38:57;;;;;;;2.35;1.50;;;4.70;92.90;;;;;;5052010;28;20116;-79
2021/04/11 04:41:55;;;;;;;4.53;2.40;;;4.70;93.10;;;;;;5051519;28;20031;-79
2021/04/11 04:44:43;;;;;;;5.35;2.35;;;4.70;93.10;;;;;;5050552;28;20041;-78
2021/04/11 04:47:40;;;;;;;4.85;2.83;;;4.70;93.30;;;;;;5051197;28;20017;-78
2021/04/11 04:50:26;;;;;;;4.82;2.30;;;4.80;93.00;;;;;;5050539;28;20062;-78
2021/04/11 04:53:19;;;;;;;5.28;3.05;;;4.70;92.90;;;;;;5052501;28;20025;-78
2021/04/11 04:55:49;;;;;;;2.08;1.50;;;4.80;92.80;;;;;;5052426;28;20408;-78
2021/04/11 04:58:19;;;;;;;3.55;2.30;;;4.80;92.90;;;;;;5050882;28;20029;-78
2021/04/11 05:00:48;;;;;;;;;;;4.80;92.60;;;;;;5052933;28;20045;-79
2021/04/11 05:03:14;;;;;;;5.53;2.92;;;4.80;92.60;;;;;;5050910;28;19970;-78
2021/04/11 05:05:48;;;;;;;3.30;2.08;;;4.80;92.70;;;;;;5052577;28;20033;-78
2021/04/11 05:08:18;;;;;;;3.95;2.42;;;4.80;92.90;;;;;;5050823;28;20009;-78
2021/04/11 05:11:01;;;;;;;5.13;2.58;;;4.90;93.00;;;;;;5050768;28;20047;-78
2021/04/11 05:13:33;;;;;;;4.72;2.15;;;4.90;92.80;;;;;;5050715;28;20111;-77
2021/04/11 05:16:08;;;;;;;1.92;1.20;;;4.90;92.80;;;;;;5050713;28;20108;-77
2021/04/11 05:18:39;;;;;;;4.97;2.50;;;4.90;93.00;;;;;;5052183;28;20017;-78
2021/04/11 05:21:15;;;;;;;6.00;2.70;;;4.80;92.70;;;;;;5050636;28;20040;-77
2021/04/11 05:23:46;;;;;;;6.82;2.90;;;4.80;92.50;;;;;;5050994;28;20024;-77
2021/04/11 05:26:25;;;;;;;6.25;2.75;;;4.90;92.60;;;;;;5050704;28;20076;-77
2021/04/11 05:29:03;;;;;;;5.85;2.40;;;4.80;92.60;;;;;;5052146;28;20549;-77
2021/04/11 05:31:32;;;;;;;4.70;2.00;;;4.80;92.60;;;;;;5051893;28;20029;-77
2021/04/11 05:33:59;;;;;;;4.97;2.30;;;4.90;92.70;;;;;;5050283;28;20032;-78
2021/04/11 05:36:43;;;;;;;6.53;2.50;;;4.90;92.80;;;;;;5050439;28;20024;-77
2021/04/11 05:39:26;;;;;;;3.88;2.45;;;4.90;92.60;;;;;;5050302;28;20021;-77
2021/04/11 05:42:18;;;;;;;3.65;2.40;;;4.90;92.60;;;;;;5050690;28;20020;-78
2021/04/11 05:44:51;;;;;;;3.88;2.28;;;4.90;92.40;;;;;;5050389;28;20037;-77
2021/04/11 05:47:26;;;;;;;4.05;2.03;;;4.90;92.30;;;;;;5051757;28;20044;-77
2021/04/11 05:50:00;;;;;;;3.33;1.92;;;5.00;92.60;;;;;;5050640;28;20020;-78
2021/04/11 05:52:33;;;;;;;4.03;2.28;;;5.00;92.60;;;;;;5051988;28;20085;-78
2021/04/11 05:55:03;;;;;;;2.92;1.23;;;5.00;92.50;;;;;;5051522;28;20017;-77
2021/04/11 05:57:38;;;;;;;4.43;2.10;;;5.00;92.90;;;;;;5050498;28;20446;-77
2021/04/11 06:00:08;;;;;;;5.82;2.72;;;5.00;92.40;;;;;;5051643;28;20032;-77
2021/04/11 06:02:45;;;;;;;4.63;2.53;;;5.00;92.30;;;;;;5050212;28;20021;-78
2021/04/11 06:05:31;;;;;;;3.30;1.95;;;5.00;92.40;;;;;;5051356;28;20458;-78
2021/04/11 06:08:16;;;;;;;4.90;2.33;;;5.00;92.60;;;;;;5050305;28;20013;-78
2021/04/11 06:11:11;;;;;;;6.50;3.40;;;4.90;92.20;;;;;;5050305;28;20041;-78
2021/04/11 06:13:45;;;;;;;4.15;2.53;;;4.90;92.20;;;;;;5051480;28;20017;-78
2021/04/11 06:16:13;;;;;;;3.22;2.10;;;4.90;92.00;;;;;;5050246;28;20017;-77
2021/04/11 06:18:47;;;;;;;4.35;1.90;;;4.90;92.10;;;;;;5050050;28;20498;-78
2021/04/11 06:21:54;;;;;;;3.88;2.20;;;4.90;92.10;;;;;;5049846;28;20350;-77
2021/04/11 06:24:47;;;;;;;7.57;2.70;;;4.90;92.30;;;;;;5050611;28;20045;-77
2021/04/11 06:27:57;;;;;;;3.95;2.08;;;5.00;92.20;;;;;;5054940;28;20021;-77
2021/04/11 06:30:27;;;;;;;4.78;2.08;;;4.90;92.10;;;;;;5053500;28;20021;-77
2021/04/11 06:33:06;;;;;;;3.23;1.23;;;4.90;91.70;;;;;;5053920;28;20449;-77
2021/04/11 06:35:42;;;;;;;3.95;2.03;;;4.90;92.40;;;;;;5053749;28;20016;-77
2021/04/11 06:38:10;;;;;;;3.03;1.67;;;5.00;91.80;;;;;;5054803;28;20475;-78
2021/04/11 06:41:14;;;;;;;3.30;1.90;;;5.00;91.70;;;;;;5053640;28;20024;-78
2021/04/11 06:44:21;;;;;;;3.88;1.70;;;5.10;91.50;;;;;;5053638;28;20373;-78
2021/04/11 06:46:58;;;;;;;4.30;1.48;;;5.10;91.60;;;;;;5068629;28;20063;-76
2021/04/11 06:49:59;;;;;;;2.97;1.60;;;5.20;91.40;;;;;;5054627;28;20024;-77
2021/04/11 06:52:38;;;;;;;3.47;1.33;;;5.20;91.10;;;;;;5052524;28;20438;-77
2021/04/11 06:55:16;;;;;;;2.63;1.33;;;5.20;91.40;;;;;;5053317;28;20021;-77
2021/04/11 06:57:59;;;;;;;3.13;1.33;;;5.30;91.70;;;;;;5053380;28;20025;-77
2021/04/11 07:00:42;;;;;;;3.08;1.40;;;5.30;91.40;;;;;;5053119;28;20507;-77
2021/04/11 07:03:29;;;;;;;3.13;1.45;;;5.40;91.20;;;;;;5061809;28;20037;-78
2021/04/11 07:06:33;;;;;;;3.30;1.67;;;5.60;91.00;;;;;;5055911;28;20047;-77
2021/04/11 07:08:58;;;;;;;3.45;1.45;;;5.70;90.60;;;;;;5054695;28;20092;-77
2021/04/11 07:11:49;;;;;;;3.55;1.65;;;5.80;90.30;;;;;;5052624;28;20041;-77
2021/04/11 07:14:26;;;;;;;4.28;1.67;;;5.90;90.30;;;;;;5052769;28;20021;-78
2021/04/11 07:17:17;;;;;;;2.92;1.20;;;5.90;89.50;;;;;;5052972;28;20108;-77
2021/04/11 07:20:06;;;;;;;4.93;2.08;;;5.90;90.10;;;;;;5054128;28;20066;-77
2021/04/11 07:23:09;;;;;;;3.75;1.30;;;5.90;90.10;;;;;;5053514;28;20029;-77
2021/04/11 07:25:41;;;;;;;2.60;1.10;;;6.00;89.10;;;;;;5053714;28;20572;-77
2021/04/11 07:28:15;;;;;;;2.05;0.88;;;6.00;90.20;;;;;;5051842;28;20078;-77
2021/04/11 07:30:46;;;;;;;5.53;1.38;;;6.00;90.80;;;;;;5053232;28;20029;-77
2021/04/11 07:33:29;;;;;;;2.78;1.20;;;6.00;89.90;;;;;;5053286;28;20154;-76
2021/04/11 07:36:24;;;;;;;6.10;1.92;;;6.10;89.50;;;;;;5051988;28;20454;-77
2021/04/11 07:39:18;;;;;;;5.95;1.90;;;6.00;87.60;;;;;;5053424;28;20033;-76
2021/04/11 07:42:02;;;;;;;4.43;1.55;;;5.90;87.40;;;;;;5053458;28;20060;-77
2021/04/11 07:44:51;;;;;;;4.05;2.10;;;5.90;88.20;;;;;;5051883;28;20024;-77
2021/04/11 07:47:53;;;;;;;4.05;1.30;;;5.90;88.60;;;;;;5055174;28;20033;-77
2021/04/11 07:50:37;;;;;;;4.25;1.77;;;5.80;90.00;;;;;;5053253;28;20032;-78
2021/04/11 07:53:13;;;;;;;2.63;1.35;;;5.80;89.40;;;;;;5052053;28;20449;-77
2021/04/11 07:55:55;;;;;;;4.68;1.58;;;5.80;90.10;;;;;;5052048;28;20017;-78
2021/04/11 07:58:44;;;;;;;3.45;1.38;;;5.90;90.30;;;;;;5052817;28;20086;-78
2021/04/11 08:01:28;;;;;;;7.63;2.13;;;5.90;90.10;;;;;;5053203;28;20021;-78
2021/04/11 08:03:57;;;;;;;2.40;1.30;;;5.90;90.50;;;;;;5052134;28;20032;-77
2021/04/11 08:06:46;;;;;;;2.92;1.25;;;5.90;90.30;;;;;;5051923;28;20013;-77
2021/04/11 08:09:38;;;;;;;5.88;2.00;;;5.90;90.50;;;;;;5054474;28;20027;-76
2021/04/11 08:12:47;;;;;;;4.40;1.45;;;5.90;89.20;;;;;;5052945;28;20033;-77
2021/04/11 08:15:19;;;;;;;3.53;1.50;;;5.90;90.20;;;;;;5067915;28;20099;-76
2021/04/11 08:18:01;;;;;;;4.72;2.15;;;5.90;90.00;;;;;;5073001;28;20031;-76
2021/04/11 08:20:52;;;;;;;4.63;2.63;;;5.90;89.90;;;;;;5072495;28;20048;-77
2021/04/11 08:23:42;;;;;;;3.53;1.67;;;5.90;88.60;;;;;;5071033;28;20055;-77
2021/04/11 08:26:30;;;;;;;3.67;1.30;;;6.00;88.50;;;;;;5071202;28;20020;-78
2021/04/11 08:29:10;;;;;;;3.58;1.40;;;6.00;90.10;;;;;;5071482;28;20449;-78
2021/04/11 08:32:11;;;;;;;2.33;1.40;;;6.00;88.60;;;;;;5073213;28;20017;-77
2021/04/11 08:35:06;;;;;;;4.03;1.40;;;6.10;91.10;;;;;;5072401;28;20391;-78
2021/04/11 08:38:09;;;;;;;1.55;0.60;;;6.10;89.60;;;;;;5071603;28;20413;-77
2021/04/11 08:40:49;;;;;;;5.53;1.67;;;6.10;91.20;;;;;;5072848;28;20021;-78
2021/04/11 08:43:41;;;;;;;4.15;1.50;;;6.00;88.90;;;;;;5071278;28;20078;-77
2021/04/11 08:46:11;;;;;;;4.32;1.45;;;6.10;86.70;;;;;;5070988;28;20027;-78
2021/04/11 08:49:05;;;;;;;4.63;1.50;;;6.20;90.10;;;;;;5070948;28;20059;-77
2021/04/11 08:51:42;;;;;;;3.47;1.73;;;6.30;89.70;;;;;;5071184;28;20027;-77
2021/04/11 08:54:19;;;;;;;4.57;1.80;;;6.40;87.00;;;;;;5071405;28;20020;-78
2021/04/11 08:57:09;;;;;;;2.92;1.50;;;6.50;86.80;;;;;;5071455;28;20020;-77
2021/04/11 08:59:52;;;;;;;3.03;1.27;;;6.60;85.80;;;;;;5072943;28;20025;-77
2021/04/11 09:02:37;;;;;;;7.13;1.67;;;6.70;85.30;;;;;;5071252;28;20070;-77
2021/04/11 09:05:13;;;;;;;4.88;1.52;;;6.80;84.50;;;;;;5071132;28;20025;-76
2021/04/11 09:08:02;;;;;;;5.82;2.40;;;6.90;84.70;;;;;;5071366;28;20369;-78
2021/04/11 09:10:46;;;;;;;3.55;1.20;;;6.90;83.70;;;;;;5070445;28;20032;-78
2021/04/11 09:13:18;;;;;;;5.13;1.55;;;7.00;84.40;;;;;;5071024;28;20020;-77
2021/04/11 09:15:55;;;;;;;4.22;1.58;;;7.00;86.70;;;;;;5064997;28;20025;-77
2021/04/11 09:18:21;;;;;;;2.55;1.30;;;6.90;86.70;;;;;;5070936;28;20096;-76
2021/04/11 09:21:11;;;;;;;3.65;1.00;;;6.90;86.80;;;;;;5065969;28;20104;-77
2021/04/11 09:23:58;;;;;;;4.32;0.95;;;6.90;86.70;;;;;;5071600;28;20029;-77
2021/04/11 09:26:57;;;;;;;6.78;1.40;;;7.00;89.10;;;;;;5071207;28;20017;-78
2021/04/11 09:29:47;;;;;;;2.95;1.30;;;7.10;85.40;;;;;;5071254;28;20020;-77
2021/04/11 09:32:32;;;;;;;4.72;2.60;;;7.30;84.00;;;;;;5070320;28;20055;-76
2021/04/11 09:35:29;;;;;;;2.55;1.42;;;7.40;84.90;;;;;;5070747;28;20558;-78
2021/04/11 09:38:27;;;;;;;2.28;1.17;;;7.40;83.60;;;;;;5070512;28;20342;-79
2021/04/11 09:41:27;;;;;;;3.92;1.40;;;7.50;84.80;;;;;;5071233;28;20457;-78
2021/04/11 09:44:03;;;;;;;2.38;0.85;;;7.60;83.90;;;;;;5070001;28;20024;-77
2021/04/11 09:46:49;;;;;;;4.20;1.00;;;7.60;84.80;;;;;;5071197;28;20434;-76
2021/04/11 09:49:44;;;;;;;2.50;1.10;;;7.60;83.80;;;;;;5070953;28;20017;-77
2021/04/11 09:52:41;;;;;;;5.00;1.35;;;7.70;82.90;;;;;;5069767;28;20020;-78
2021/04/11 09:55:33;;;;;;;6.30;1.10;;;7.90;81.10;;;;;;5069885;28;20113;-77
2021/04/11 09:58:18;;;;;;;2.92;1.38;;;8.00;81.70;;;;;;5071680;28;20021;-77
2021/04/11 10:00:49;;;;;;;2.65;0.70;;;8.00;77.50;;;;;;5073991;28;20368;-77
2021/04/11 10:03:23;;;;;;;4.50;1.50;;;8.10;80.40;;;;;;5074756;28;20457;-77
2021/04/11 10:06:02;;;;;;;6.35;1.58;;;8.10;82.20;;;;;;5075354;28;20457;-77
2021/04/11 10:08:54;;;;;;;2.90;1.27;;;8.00;80.80;;;;;;5073981;28;20021;-76
2021/04/11 10:11:30;;;;;;;3.78;1.63;;;7.90;79.60;;;;;;5074693;28;20052;-76
2021/04/11 10:14:04;;;;;;;4.88;1.10;;;8.00;81.10;;;;;;5068893;28;20025;-76
2021/04/11 10:16:57;;;;;;;3.05;0.90;;;8.10;83.70;;;;;;5053683;28;20607;-77
2021/04/11 10:19:36;;;;;;;2.13;0.93;;;8.30;77.30;;;;;;5054242;28;20024;-79
2021/04/11 10:22:14;;;;;;;1.60;0.80;;;8.50;77.70;;;;;;5053591;28;20128;-78
2021/04/11 10:24:51;;;;;;;4.93;1.25;;;8.50;75.50;;;;;;5054641;28;20108;-77
2021/04/11 10:27:16;;;;;;;3.85;1.17;;;8.40;76.30;;;;;;5053774;28;20043;-78
2021/04/11 10:29:44;;;;;;;1.95;0.68;;;8.40;78.30;;;;;;5055079;28;20017;-78
2021/04/11 10:32:13;;;;;;;4.13;1.20;;;8.20;81.90;;;;;;5055092;28;20163;-81
2021/04/11 10:35:01;;;;;;;3.95;1.45;;;8.10;82.90;;;;;;5056764;28;20017;-85
2021/04/11 10:37:32;;;;;;;5.32;1.13;;;7.90;82.40;;;;;;5054594;28;20017;-82
2021/04/11 10:40:20;;;;;;;3.95;1.58;;;7.70;82.50;;;;;;5053544;28;20021;-85
2021/04/11 10:43:10;;;;;;;3.65;1.40;;;7.70;82.60;;;;;;5054087;28;20487;-88
2021/04/11 10:45:47;;;;;;;4.70;1.00;;;7.80;82.30;;;;;;5053488;28;20361;-84
2021/04/11 10:48:15;;;;;;;6.95;2.10;;;8.00;83.20;;;;;;5053286;28;20029;-85
2021/04/11 10:51:18;;;;;;;3.70;1.27;;;8.10;81.90;;;;;;5053141;28;20421;-82
2021/04/11 10:54:03;;;;;;;4.78;1.30;;;8.10;82.40;;;;;;5053255;28;20029;-84
2021/04/11 10:56:43;;;;;;;4.28;1.30;;;8.20;80.80;;;;;;5052979;28;20116;-78
2021/04/11 10:59:23;;;;;;;6.47;1.50;;;8.30;84.20;;;;;;5053412;28;20021;-82
2021/04/11 11:01:52;;;;;;;4.05;1.40;;;8.40;81.30;;;;;;5052834;28;20085;-80
2021/04/11 11:04:36;;;;;;;5.82;1.23;;;8.50;81.80;;;;;;5053578;28;20021;-90
2021/04/11 11:07:34;;;;;;;4.57;1.00;;;8.80;77.80;;;;;;5052815;28;20017;-81
2021/04/11 11:10:22;;;;;;;7.15;1.05;;;9.10;79.80;;;;;;5051509;28;20056;-81
2021/04/11 11:13:18;;;;;;;4.47;1.33;;;9.00;76.60;;;;;;5052862;28;20029;-81
2021/04/11 11:16:08;;;;;;;7.03;1.40;;;8.80;74.80;;;;;;5052525;28;20483;-80
2021/04/11 11:18:39;;;;;;;5.43;1.77;;;8.50;74.50;;;;;;5052708;28;20025;-79
2021/04/11 11:21:50;;;;;;;5.43;1.15;;;8.30;78.10;;;;;;5052231;28;20448;-79
2021/04/11 11:24:31;;;;;;;5.75;2.00;;;8.30;80.40;;;;;;5052112;28;20037;-80
2021/04/11 11:27:17;;;;;;;3.53;1.15;;;8.40;78.10;;;;;;5053607;28;20032;-77
2021/04/11 11:30:05;;;;;;;4.38;1.25;;;8.50;78.20;;;;;;5052325;28;20457;-79
2021/04/11 11:32:56;;;;;;;6.82;1.60;;;8.70;76.80;;;;;;5051990;28;20021;-79
2021/04/11 11:35:22;;;;;;;7.75;1.60;;;8.70;79.10;;;;;;5052417;28;20457;-79
2021/04/11 11:38:02;;;;;;;3.42;1.20;;;8.90;78.30;;;;;;5052207;28;20086;-79
2021/04/11 11:40:34;;;;;;;;;;;8.80;75.40;;;;;;5053986;28;20041;-78
2021/04/11 11:43:15;;;;;;;7.22;2.35;;;8.70;76.20;;;;;;5053665;28;19908;-80
2021/04/11 11:45:43;;;;;;;7.60;2.83;;;8.60;75.10;;;;;;5052134;28;20025;-80
2021/04/11 11:48:47;;;;;;;6.82;1.23;;;8.60;78.10;;;;;;5051884;28;20020;-79
2021/04/11 11:51:28;;;;;;;4.80;1.10;;;8.70;76.70;;;;;;5051580;28;20025;-79
2021/04/11 11:53:54;;;;;;;4.68;0.90;;;8.90;76.80;;;;;;5051966;28;20104;-79
2021/04/11 11:56:33;;;;;;;5.55;1.70;;;8.90;76.50;;;;;;5052907;28;20092;-79
2021/04/11 11:59:07;;;;;;;4.82;1.33;;;9.00;73.20;;;;;;5053033;28;20013;-79
2021/04/11 12:01:51;;;;;;;7.22;1.13;;;9.10;74.20;;;;;;5053191;28;20013;-79
2021/04/11 12:04:46;;;;;;;5.30;1.10;;;9.20;70.50;;;;;;5052148;28;20037;-78
2021/04/11 12:07:18;;;;;;;3.22;1.00;;;9.30;72.00;;;;;;5053510;28;20017;-80
2021/04/11 12:09:48;;;;;;;3.95;1.55;;;9.40;74.50;;;;;;5051682;28;20021;-79
2021/04/11 12:12:28;;;;;;;4.47;0.90;;;9.30;72.30;;;;;;5051222;28;20048;-79
2021/04/11 12:15:03;;;;;;;3.20;0.90;;;9.20;73.40;;;;;;5051529;28;20017;-79
2021/04/11 12:17:57;;;;;;;5.60;1.02;;;9.20;77.60;;;;;;5051146;28;20017;-80
2021/04/11 12:20:46;;;;;;;4.70;1.20;;;9.20;77.40;;;;;;5051274;28;20043;-79
2021/04/11 12:23:28;;;;;;;6.13;1.20;;;9.10;85.20;;;;;;5049165;28;20068;-79
2021/04/11 12:26:18;;;;;;;3.63;1.10;;;9.20;79.10;;;;;;5051202;28;20013;-78
2021/04/11 12:28:55;;;;;;;4.03;1.10;;;9.20;73.60;;;;;;5051190;28;20049;-79
2021/04/11 12:31:33;;;;;;;6.40;2.17;;;9.00;73.00;;;;;;5051063;28;20025;-78
2021/04/11 12:34:29;;;;;;;5.03;1.92;;;8.90;78.70;;;;;;5050876;28;20377;-80
2021/04/11 12:37:28;;;;;;;3.58;1.20;;;8.70;76.10;;;;;;5051483;28;20074;-80
2021/04/11 12:40:21;;;;;;;4.35;2.83;;;8.60;87.30;;;;;;5051110;28;20021;-82
2021/04/11 12:43:08;;;;;;;5.07;1.13;;;8.60;80.60;;;;;;5051166;28;20032;-78
2021/04/11 12:45:42;;;;;;;6.05;1.10;;;8.80;89.20;;;;;;5051212;28;20028;-77
2021/04/11 12:48:30;;;;;;;5.20;1.40;;;8.80;76.80;;;;;;5050642;28;20020;-79
2021/04/11 12:51:18;;;;;;;2.25;0.77;;;8.80;77.30;;;;;;5051089;28;20013;-79
2021/04/11 12:54:04;;;;;;;3.80;0.80;;;8.80;77.40;;;;;;5050712;28;20115;-80
2021/04/11 12:56:31;;;;;;;3.75;0.80;;;8.80;85.10;;;;;;5050842;28;20031;-75
2021/04/11 12:59:09;;;;;;;2.45;0.80;;;8.70;77.40;;;;;;5050461;28;20460;-78
2021/04/11 13:01:45;;;;;;;5.57;1.05;;;8.70;80.40;;;;;;5050663;28;20033;-77
2021/04/11 13:04:20;;;;;;;4.68;0.90;;;8.70;80.70;;;;;;5050185;28;20032;-78
2021/04/11 13:07:21;;;;;;;4.53;1.20;;;8.90;71.80;;;;;;5050274;28;20005;-76
2021/04/11 13:10:25;;;;;;;7.45;1.48;;;9.10;85.10;;;;;;5051871;28;20033;-77
2021/04/11 13:13:19;;;;;;;6.28;1.23;;;9.30;73.70;;;;;;5051813;28;20028;-77
2021/04/11 13:16:01;;;;;;;3.03;1.05;;;9.80;76.70;;;;;;5050789;28;20025;-75
2021/04/11 13:18:37;;;;;;;3.42;0.90;;;10.40;70.90;;;;;;5051733;28;20099;-77
2021/04/11 13:21:38;;;;;;;5.68;1.10;;;10.60;66.60;;;;;;5051637;28;20101;-76
2021/04/11 13:24:35;;;;;;;4.38;1.10;;;10.70;70.50;;;;;;5051070;28;20362;-76
2021/04/11 13:27:12;;;;;;;5.07;1.83;;;10.80;74.30;;;;;;5052861;28;20033;-78
2021/04/11 13:30:12;;;;;;;4.72;2.00;;;10.80;66.70;;;;;;5050350;28;20414;-78
2021/04/11 13:32:37;;;;;;;4.60;1.63;;;10.80;63.80;;;;;;5050162;28;20029;-77
2021/04/11 13:35:28;;;;;;;3.65;1.20;;;10.90;69.60;;;;;;5056165;28;20095;-77
2021/04/11 13:38:00;;;;;;;4.28;0.80;;;10.80;77.40;;;;;;5056955;28;20021;-78
2021/04/11 13:40:29;;;;;;;3.58;1.25;;;10.70;71.60;;;;;;5055266;28;20612;-78
2021/04/11 13:42:54;;;;;;;1.15;0.50;;;10.60;78.40;;;;;;5055210;28;20025;-78
2021/04/11 13:45:44;;;;;;;4.57;0.80;;;10.50;61.40;;;;;;5055488;28;20031;-78
2021/04/11 13:48:39;;;;;;;4.17;1.00;;;10.50;74.40;;;;;;5053998;28;20041;-78
2021/04/11 13:51:19;;;;;;;4.63;1.10;;;10.40;73.00;;;;;;5054336;28;20013;-78
2021/04/11 13:53:58;;;;;;;2.97;1.00;;;10.40;71.30;;;;;;5059230;28;20017;-78
2021/04/11 13:56:32;;;;;;;3.53;0.95;;;10.20;67.00;;;;;;5055931;28;20289;-75
2021/04/11 13:59:05;;;;;;;3.55;0.80;;;10.10;63.10;;;;;;5054549;28;20020;-76